Minneapolis, MN (55401)

3:50 PM CDT on July 28, 2016 (GMT -0500)
RBC Plaza Minneapolis | | Change Station

Elev 899 ft 44.98 °N, 93.27 °W | Updated 5 minutes ago

Partly Cloudy
Partly Cloudy
74.3 °F
Feels Like 77 °F
N
6.3
Wind Variable Wind from ESE

Today
High -- | Low -- °F
--% Chance of Precip.
Yesterday
High -- | Low -- °F
Precip. -- in
Pressure 30.01 in
Visibility 10.0 miles
Clouds Few 5500 ft
Heat Index 77 °F
Dew Point 59 °F
Humidity 59%
Rainfall 0.00 in
Snow Depth Not available.
5:54 AM 8:43 PM
Waning Crescent, 29% visible
METAR KMIC 281953Z 04010G18KT 10SM FEW055 24/14 A3001 RMK AO2 SLP160 T02390139
Pressure 30.01 in
Visibility 10.0 miles
Clouds Few 5500 ft
Heat Index 77 °F
Dew Point 59 °F
Humidity 59%
Rainfall 0.00 in
Snow Depth Not available.
5:54 AM 8:43 PM
Waning Crescent, 29% visible
METAR KMIC 281953Z 04010G18KT 10SM FEW055 24/14 A3001 RMK AO2 SLP160 T02390139

10-Day Weather Forecast

Almanac

Astronomy

Jul. 28, 2016 Rise Set
Actual Time
Civil Twilight
Nautical Twilight
Astronomical Twilight
Moon
Length of Visible Light
Length of Day
Tomorrow will be .
, % of the Moon is Illuminated

Today's Extremes

State Highs State Lows

Community

WunderPhotos

Upload Photos

1,928,206 photos uploaded!

WunderBlog® & News

Nearby

Air Quality

  Air Quality AQ Index Pollutant
Not available.

Snow Depth

Station Depth Elevation

Earthquake Activity

City Distance Mag. Time & Date
Minimum magnitude displayed is 2.5.

Coastal Water Temperatures

Place Temperature

Stations

Nearby Weather Stations

Station Location Temp. Windchill Dew Point Humidity Wind Precip. Elev Updated Type
                   

Watches & Warnings

There are currently no watches in effect.